createdAt,value
2019-05-18T00:00:16.074Z,8.40
2019-05-18T00:03:20.998Z,7.37
2019-05-18T00:06:26.061Z,7.63
2019-05-18T00:09:31.051Z,8.30
2019-05-18T00:12:36.182Z,7.60
2019-05-18T00:15:41.338Z,8.63
2019-05-18T00:18:46.287Z,9.07
2019-05-18T00:21:51.223Z,8.27
2019-05-18T00:24:56.130Z,7.67
2019-05-18T00:28:01.768Z,6.87
2019-05-18T00:31:06.917Z,6.83
2019-05-18T00:34:11.981Z,6.70
2019-05-18T00:37:17.232Z,7.23
2019-05-18T00:40:22.226Z,6.53
2019-05-18T00:43:27.325Z,6.03
2019-05-18T00:46:32.242Z,8.60
2019-05-18T00:49:37.333Z,8.53
2019-05-18T00:52:42.401Z,8.60
2019-05-18T00:55:47.454Z,8.47
2019-05-18T00:58:52.353Z,9.53
2019-05-18T01:01:57.368Z,8.83
2019-05-18T01:05:02.355Z,10.63
2019-05-18T01:08:07.377Z,10.23
2019-05-18T01:11:12.407Z,9.40
2019-05-18T01:14:17.470Z,10.23
2019-05-18T01:17:22.467Z,10.60
2019-05-18T01:20:27.547Z,11.20
2019-05-18T01:23:32.468Z,10.37
2019-05-18T01:26:37.457Z,9.83
2019-05-18T01:29:42.481Z,10.20
2019-05-18T01:32:47.490Z,11.17
2019-05-18T01:35:52.406Z,12.00
2019-05-18T01:38:57.401Z,12.13
2019-05-18T01:42:02.353Z,10.40
2019-05-18T01:45:16.316Z,10.80
2019-05-18T01:48:14.796Z,12.87
2019-05-18T01:51:20.029Z,10.90
2019-05-18T01:54:24.961Z,10.50
2019-05-18T01:57:30.029Z,11.07
2019-05-18T02:00:35.036Z,12.53
2019-05-18T02:03:40.051Z,11.57
2019-05-18T02:06:45.061Z,11.23
2019-05-18T02:09:50.014Z,10.93
2019-05-18T02:12:55.116Z,11.03
2019-05-18T02:16:00.038Z,11.53
2019-05-18T02:19:05.050Z,12.40
2019-05-18T02:22:09.968Z,12.73
2019-05-18T02:25:15.738Z,12.30
2019-05-18T02:28:20.741Z,11.33
2019-05-18T02:31:25.674Z,11.60
2019-05-18T02:34:30.599Z,11.43
2019-05-18T02:37:35.686Z,12.60
2019-05-18T02:40:40.696Z,13.03
2019-05-18T02:43:45.690Z,11.33
2019-05-18T02:46:50.707Z,10.50
2019-05-18T02:49:55.860Z,12.23
2019-05-18T02:53:00.870Z,11.53
2019-05-18T02:56:05.869Z,11.57
2019-05-18T02:59:10.862Z,12.13
2019-05-18T03:02:15.792Z,12.03
2019-05-18T03:05:20.861Z,12.20
2019-05-18T03:08:26.014Z,11.70
2019-05-18T03:11:31.079Z,11.13
2019-05-18T03:14:36.099Z,10.90
2019-05-18T03:17:41.116Z,11.70
2019-05-18T03:20:46.181Z,11.70
2019-05-18T03:23:51.186Z,11.07
2019-05-18T03:26:56.119Z,12.13
2019-05-18T03:30:01.122Z,13.13
2019-05-18T03:33:06.259Z,11.20
2019-05-18T03:36:11.238Z,10.23
2019-05-18T03:39:16.230Z,10.70
2019-05-18T03:42:21.218Z,10.63
2019-05-18T03:45:26.258Z,11.13
2019-05-18T03:48:31.304Z,11.37
2019-05-18T03:51:36.222Z,11.03
2019-05-18T03:54:41.159Z,9.77
2019-05-18T03:57:46.222Z,10.60
2019-05-18T04:00:51.143Z,12.60
2019-05-18T04:03:56.075Z,9.33
2019-05-18T04:07:00.978Z,8.80
2019-05-18T04:10:06.921Z,9.03
2019-05-18T04:13:11.933Z,11.30
2019-05-18T04:16:16.877Z,9.90
2019-05-18T04:19:21.893Z,10.40
2019-05-18T04:22:26.856Z,10.10
2019-05-18T04:25:31.880Z,9.23
2019-05-18T04:28:36.798Z,10.03
2019-05-18T04:31:41.787Z,10.43
2019-05-18T04:34:47.757Z,9.73
2019-05-18T04:37:52.822Z,10.63
2019-05-18T04:40:57.802Z,11.70
2019-05-18T04:44:02.810Z,10.80
2019-05-18T04:47:07.737Z,10.10
2019-05-18T04:50:12.838Z,11.40
2019-05-18T04:53:17.827Z,13.57
2019-05-18T04:56:22.825Z,11.67
2019-05-18T04:59:27.779Z,10.50
2019-05-18T05:02:32.768Z,10.87
2019-05-18T05:05:37.699Z,9.87
2019-05-18T05:08:42.629Z,10.67
2019-05-18T05:11:47.621Z,10.40
2019-05-18T05:14:52.551Z,10.37
2019-05-18T05:17:58.042Z,10.60
2019-05-18T05:21:03.041Z,9.40
2019-05-18T05:24:08.102Z,9.83
2019-05-18T05:27:13.992Z,9.77
2019-05-18T05:30:19.066Z,9.30
2019-05-18T05:33:24.893Z,9.90
2019-05-18T05:36:29.880Z,9.77
2019-05-18T05:39:35.998Z,9.53
2019-05-18T05:42:40.995Z,8.80
2019-05-18T05:45:46.104Z,10.17
2019-05-18T05:48:51.133Z,10.40
2019-05-18T05:51:56.114Z,9.93
2019-05-18T05:55:01.059Z,8.53
2019-05-18T05:58:05.983Z,10.37
2019-05-18T06:01:11.049Z,9.63
2019-05-18T06:04:16.043Z,10.80
2019-05-18T06:07:20.977Z,10.47
2019-05-18T06:10:26.054Z,9.57
2019-05-18T06:13:31.126Z,8.47
2019-05-18T06:16:36.050Z,9.07
2019-05-18T06:19:41.065Z,9.33
2019-05-18T06:22:46.307Z,7.83
2019-05-18T06:25:51.455Z,8.77
2019-05-18T06:28:56.441Z,8.60
2019-05-18T06:32:01.422Z,7.93
2019-05-18T06:35:06.515Z,7.97
2019-05-18T06:38:11.501Z,8.20
2019-05-18T06:41:16.414Z,8.33
2019-05-18T06:44:21.343Z,7.47
2019-05-18T06:47:26.413Z,8.23
2019-05-18T06:50:31.903Z,8.87
2019-05-18T06:53:36.972Z,8.90
2019-05-18T06:56:42.655Z,9.10
2019-05-18T06:59:47.998Z,8.73
2019-05-18T07:02:52.988Z,8.13
2019-05-18T07:05:57.906Z,8.80
2019-05-18T07:09:03.114Z,7.70
2019-05-18T07:12:08.659Z,8.63
2019-05-18T07:15:14.849Z,7.87
2019-05-18T07:18:19.775Z,7.50
2019-05-18T07:21:24.777Z,8.23
2019-05-18T07:24:29.778Z,7.80
2019-05-18T07:27:34.831Z,8.07
2019-05-18T07:30:39.774Z,7.90
2019-05-18T07:33:44.859Z,12.70
2019-05-18T07:36:49.938Z,8.10
2019-05-18T07:39:54.962Z,6.83
2019-05-18T07:42:59.966Z,9.47
2019-05-18T07:46:04.950Z,7.73
2019-05-18T07:49:09.999Z,6.97
2019-05-18T07:52:17.259Z,7.70
2019-05-18T07:55:21.618Z,7.40
2019-05-18T07:58:26.742Z,6.83
2019-05-18T08:01:32.702Z,6.90
2019-05-18T08:04:39.845Z,6.67
2019-05-18T08:07:45.069Z,6.27
2019-05-18T08:10:50.016Z,7.20
2019-05-18T08:13:54.935Z,6.80
2019-05-18T08:17:00.002Z,7.30
2019-05-18T08:20:05.296Z,7.07
2019-05-18T08:23:10.555Z,6.90
2019-05-18T08:26:15.593Z,6.80
2019-05-18T08:29:20.915Z,7.20
2019-05-18T08:32:26.091Z,6.33
2019-05-18T08:35:31.173Z,5.97
2019-05-18T08:38:36.105Z,5.97
2019-05-18T08:41:41.115Z,6.77
2019-05-18T08:44:46.112Z,6.10
2019-05-18T08:47:51.133Z,6.10
2019-05-18T08:50:56.124Z,5.67
2019-05-18T08:54:01.132Z,6.40
2019-05-18T08:57:06.219Z,5.70
2019-05-18T09:00:11.707Z,5.27
2019-05-18T09:03:16.718Z,4.70
2019-05-18T09:06:21.708Z,5.13
2019-05-18T09:09:26.782Z,5.33
2019-05-18T09:12:31.771Z,5.00
2019-05-18T09:15:36.840Z,4.90
2019-05-18T09:18:41.780Z,5.90
2019-05-18T09:21:46.862Z,5.80
2019-05-18T09:24:52.013Z,6.63
2019-05-18T09:27:56.935Z,5.67
2019-05-18T09:31:01.862Z,5.27
2019-05-18T09:34:06.770Z,4.50
2019-05-18T09:37:11.758Z,4.70
2019-05-18T09:40:17.642Z,5.13
2019-05-18T09:43:22.636Z,5.40
2019-05-18T09:46:27.588Z,4.57
2019-05-18T09:49:32.590Z,4.97
2019-05-18T09:52:46.234Z,4.90
2019-05-18T09:55:44.270Z,4.30
2019-05-18T09:58:49.413Z,4.23
2019-05-18T10:01:54.406Z,4.30
2019-05-18T10:04:59.322Z,4.30
2019-05-18T10:08:04.409Z,4.67
2019-05-18T10:11:09.580Z,6.03
2019-05-18T10:14:14.562Z,4.30
2019-05-18T10:17:19.569Z,4.97
2019-05-18T10:20:24.565Z,4.57
2019-05-18T10:23:29.609Z,4.53
2019-05-18T10:26:34.635Z,4.27
2019-05-18T10:29:39.542Z,4.33
2019-05-18T10:32:44.770Z,5.40
2019-05-18T10:35:49.801Z,5.47
2019-05-18T10:38:54.748Z,5.07
2019-05-18T10:41:59.892Z,4.70
2019-05-18T10:45:05.378Z,4.70
2019-05-18T10:48:10.617Z,4.70
2019-05-18T10:51:15.636Z,4.80
2019-05-18T10:54:21.216Z,5.93
2019-05-18T10:57:26.197Z,4.07
2019-05-18T11:00:31.199Z,4.87
2019-05-18T11:03:36.266Z,4.67
2019-05-18T11:06:41.321Z,4.50
2019-05-18T11:09:46.498Z,4.80
2019-05-18T11:12:51.614Z,5.07
2019-05-18T11:15:56.703Z,4.40
2019-05-18T11:19:01.792Z,3.07
2019-05-18T11:22:06.920Z,4.00
2019-05-18T11:25:12.045Z,4.50
2019-05-18T11:28:17.055Z,3.60
2019-05-18T11:31:22.098Z,3.20
2019-05-18T11:34:27.278Z,2.97
2019-05-18T11:37:32.197Z,4.07
2019-05-18T11:40:37.291Z,3.90
2019-05-18T11:43:42.230Z,3.67
2019-05-18T11:46:47.378Z,2.97
2019-05-18T11:49:52.619Z,4.50
2019-05-18T11:52:57.961Z,4.13
2019-05-18T11:56:03.261Z,3.30
2019-05-18T11:59:08.182Z,3.50
2019-05-18T12:02:13.188Z,3.53
2019-05-18T12:05:18.249Z,3.60
2019-05-18T12:08:23.342Z,4.43
2019-05-18T12:11:28.357Z,3.30
2019-05-18T12:14:33.400Z,3.50
2019-05-18T12:17:38.507Z,4.70
2019-05-18T12:20:43.567Z,3.77
2019-05-18T12:23:49.412Z,3.70
2019-05-18T12:26:54.502Z,4.27
2019-05-18T12:29:59.486Z,4.10
2019-05-18T12:33:04.563Z,4.03
2019-05-18T12:36:09.650Z,4.13
2019-05-18T12:39:14.661Z,3.70
2019-05-18T12:42:19.734Z,4.07
2019-05-18T12:45:24.823Z,3.67
2019-05-18T12:48:29.741Z,4.17
2019-05-18T12:51:34.763Z,3.47
2019-05-18T12:54:46.586Z,4.07
2019-05-18T12:57:46.541Z,3.70
2019-05-18T13:00:51.674Z,3.70
2019-05-18T13:03:57.322Z,4.33
2019-05-18T13:07:02.474Z,3.77
2019-05-18T13:10:09.515Z,4.23
2019-05-18T13:13:14.498Z,3.87
2019-05-18T13:16:19.564Z,4.37
2019-05-18T13:19:24.634Z,4.77
2019-05-18T13:22:29.548Z,3.73
2019-05-18T13:25:34.638Z,3.87
2019-05-18T13:28:39.553Z,4.40
2019-05-18T13:31:44.658Z,3.37
2019-05-18T13:34:49.580Z,5.20
2019-05-18T13:37:54.527Z,4.37
2019-05-18T13:40:59.681Z,4.43
2019-05-18T13:44:04.861Z,4.63
2019-05-18T13:47:09.785Z,3.63
2019-05-18T13:50:16.559Z,4.40
2019-05-18T13:53:21.497Z,4.10
2019-05-18T13:56:26.882Z,4.17
2019-05-18T13:59:31.942Z,4.30
2019-05-18T14:02:37.105Z,4.20
2019-05-18T14:05:42.596Z,3.47
2019-05-18T14:08:47.498Z,5.47
2019-05-18T14:11:52.888Z,4.40
2019-05-18T14:14:57.816Z,4.50
2019-05-18T14:18:03.157Z,4.23
2019-05-18T14:21:08.210Z,3.90
2019-05-18T14:24:14.359Z,5.27
2019-05-18T14:27:19.359Z,4.57
2019-05-18T14:30:24.842Z,3.70
2019-05-18T14:33:29.776Z,3.63
2019-05-18T14:36:36.447Z,4.97
2019-05-18T14:39:41.365Z,4.60
2019-05-18T14:42:46.665Z,5.00
2019-05-18T14:45:51.732Z,4.50
2019-05-18T14:48:56.967Z,4.07
2019-05-18T14:52:02.160Z,4.80
2019-05-18T14:55:07.482Z,3.80
2019-05-18T14:58:12.639Z,3.90
2019-05-18T15:01:17.799Z,4.50
2019-05-18T15:04:22.958Z,4.20
2019-05-18T15:07:28.145Z,3.97
2019-05-18T15:10:33.158Z,3.77
2019-05-18T15:13:38.273Z,4.27
2019-05-18T15:16:43.487Z,5.13
2019-05-18T15:19:48.508Z,4.40
2019-05-18T15:22:53.878Z,4.40
2019-05-18T15:25:58.899Z,4.97
2019-05-18T15:29:04.056Z,4.43
2019-05-18T15:32:09.050Z,4.60
2019-05-18T15:35:17.067Z,4.30
2019-05-18T15:38:21.994Z,4.33
2019-05-18T15:41:28.963Z,4.10
2019-05-18T15:44:34.104Z,3.57
2019-05-18T15:47:39.237Z,3.83
2019-05-18T15:50:45.955Z,4.10
2019-05-18T15:53:51.134Z,4.10
2019-05-18T15:56:56.264Z,4.50
2019-05-18T16:00:01.321Z,4.47
2019-05-18T16:03:06.549Z,4.67
2019-05-18T16:06:11.637Z,4.13
2019-05-18T16:09:16.933Z,5.77
2019-05-18T16:12:22.027Z,5.33
2019-05-18T16:15:27.248Z,5.03
2019-05-18T16:18:32.353Z,4.60
2019-05-18T16:21:37.619Z,4.63
2019-05-18T16:24:42.553Z,4.47
2019-05-18T16:27:47.833Z,4.77
2019-05-18T16:30:52.885Z,4.30
2019-05-18T16:33:58.714Z,5.03
2019-05-18T16:37:03.906Z,3.03
2019-05-18T16:40:10.630Z,4.10
2019-05-18T16:43:15.742Z,3.50
2019-05-18T16:46:20.729Z,3.90
2019-05-18T16:49:26.055Z,4.20
2019-05-18T16:52:31.162Z,4.00
2019-05-18T16:55:37.005Z,4.30
2019-05-18T16:58:42.078Z,3.93
2019-05-18T17:01:47.272Z,3.90
2019-05-18T17:04:52.409Z,3.90
2019-05-18T17:07:57.462Z,4.63
2019-05-18T17:11:02.669Z,3.70
2019-05-18T17:14:07.947Z,3.80
2019-05-18T17:17:13.118Z,3.33
2019-05-18T17:20:18.698Z,5.03
2019-05-18T17:23:23.681Z,3.40
2019-05-18T17:26:28.982Z,3.80
2019-05-18T17:29:33.897Z,3.80
2019-05-18T17:32:39.137Z,3.97
2019-05-18T17:35:59.343Z,4.00
2019-05-18T17:38:50.905Z,3.53
2019-05-18T17:41:56.081Z,3.60
2019-05-18T17:45:01.326Z,4.33
2019-05-18T17:48:06.550Z,3.80
2019-05-18T17:51:11.702Z,3.80
2019-05-18T17:54:16.742Z,5.20
2019-05-18T17:57:21.779Z,4.13
2019-05-18T18:00:27.057Z,3.60
2019-05-18T18:03:32.203Z,4.20
2019-05-18T18:06:37.170Z,4.20
2019-05-18T18:09:42.270Z,3.93
2019-05-18T18:12:47.501Z,4.67
2019-05-18T18:15:52.730Z,4.97
2019-05-18T18:18:58.003Z,6.47
2019-05-18T18:22:03.198Z,9.40
2019-05-18T18:25:08.493Z,8.13
2019-05-18T18:28:13.583Z,7.00
2019-05-18T18:31:18.799Z,5.30
2019-05-18T18:34:23.814Z,3.80
2019-05-18T18:37:29.745Z,7.73
2019-05-18T18:40:34.968Z,8.93
2019-05-18T18:43:40.151Z,8.67
2019-05-18T18:46:45.222Z,8.50
2019-05-18T18:49:50.369Z,19.50
2019-05-18T18:52:55.434Z,11.70
2019-05-18T18:56:00.797Z,10.70
2019-05-18T18:59:05.980Z,7.30
2019-05-18T19:02:11.541Z,6.53
2019-05-18T19:05:16.662Z,5.77
2019-05-18T19:08:21.703Z,8.60
2019-05-18T19:11:26.847Z,5.50
2019-05-18T19:14:31.888Z,4.87
2019-05-18T19:17:36.927Z,5.07
2019-05-18T19:20:42.054Z,6.40
2019-05-18T19:23:47.226Z,5.27
2019-05-18T19:26:52.308Z,6.67
2019-05-18T19:29:57.575Z,6.20
2019-05-18T19:33:02.522Z,5.53
2019-05-18T19:36:07.583Z,6.03
2019-05-18T19:39:13.789Z,6.20
2019-05-18T19:42:18.801Z,6.03
2019-05-18T19:45:24.333Z,6.20
2019-05-18T19:48:29.562Z,7.17
2019-05-18T19:51:34.524Z,6.90
2019-05-18T19:54:39.777Z,9.27
2019-05-18T19:57:45.106Z,8.00
2019-05-18T20:00:50.063Z,8.03
2019-05-18T20:03:55.060Z,7.90
2019-05-18T20:07:00.483Z,9.07
2019-05-18T20:10:05.987Z,7.97
2019-05-18T20:13:11.361Z,8.23
2019-05-18T20:16:16.604Z,8.70
2019-05-18T20:19:21.839Z,10.50
2019-05-18T20:22:26.976Z,12.20
2019-05-18T20:25:33.528Z,18.13
2019-05-18T20:28:38.848Z,19.90
2019-05-18T20:31:44.064Z,18.93
2019-05-18T20:34:49.218Z,17.83
2019-05-18T20:37:54.450Z,12.97
2019-05-18T20:40:59.623Z,9.30
2019-05-18T20:44:05.001Z,9.73
2019-05-18T20:47:10.269Z,9.13
2019-05-18T20:50:16.977Z,9.40
2019-05-18T20:53:22.084Z,9.00
2019-05-18T20:56:27.335Z,8.67
2019-05-18T20:59:33.103Z,9.10
2019-05-18T21:02:38.217Z,8.40
2019-05-18T21:05:43.316Z,7.87
2019-05-18T21:08:48.305Z,7.47
2019-05-18T21:11:53.431Z,8.37
2019-05-18T21:14:58.414Z,9.33
2019-05-18T21:18:03.559Z,8.60
2019-05-18T21:21:08.456Z,9.90
2019-05-18T21:24:13.398Z,9.80
2019-05-18T21:27:18.592Z,8.53
2019-05-18T21:30:23.701Z,9.83
2019-05-18T21:33:28.746Z,8.60
2019-05-18T21:36:33.872Z,9.80
2019-05-18T21:39:38.905Z,9.50
2019-05-18T21:42:43.857Z,9.20
2019-05-18T21:45:48.761Z,9.80
2019-05-18T21:48:53.807Z,9.17
2019-05-18T21:54:02.254Z,10.93
2019-05-18T21:57:07.312Z,9.43
2019-05-18T22:00:13.093Z,9.83
2019-05-18T22:03:18.084Z,9.87
2019-05-18T22:06:23.168Z,10.07
2019-05-18T22:09:28.157Z,8.53
2019-05-18T22:12:33.247Z,9.37
2019-05-18T22:15:38.228Z,10.20
2019-05-18T22:18:43.483Z,9.37
2019-05-18T22:21:48.468Z,9.60
2019-05-18T22:24:53.332Z,8.63
2019-05-18T22:27:58.136Z,9.20
2019-05-18T22:31:03.224Z,8.77
2019-05-18T22:34:07.939Z,9.00
2019-05-18T22:37:12.753Z,8.77
2019-05-18T22:40:17.826Z,8.40
2019-05-18T22:43:22.545Z,7.83
2019-05-18T22:46:27.330Z,9.27
2019-05-18T22:49:32.024Z,8.03
2019-05-18T22:52:37.116Z,8.00
2019-05-18T22:55:41.857Z,7.37
2019-05-18T22:58:46.528Z,6.80
2019-05-18T23:01:51.309Z,7.50
2019-05-18T23:04:57.230Z,7.33
2019-05-18T23:08:01.904Z,7.03
2019-05-18T23:11:06.678Z,7.97
2019-05-18T23:14:11.407Z,7.40
2019-05-18T23:17:16.130Z,7.90
2019-05-18T23:20:20.873Z,8.03
2019-05-18T23:23:25.625Z,6.70
2019-05-18T23:26:30.352Z,7.10
2019-05-18T23:29:35.114Z,7.57
2019-05-18T23:32:39.881Z,7.50
2019-05-18T23:35:44.530Z,7.50
2019-05-18T23:38:49.256Z,6.87
2019-05-18T23:41:53.880Z,6.83
2019-05-18T23:44:58.533Z,6.83
2019-05-18T23:48:03.262Z,7.10
2019-05-18T23:51:08.010Z,6.67
2019-05-18T23:54:12.679Z,7.07
2019-05-18T23:57:17.317Z,7.33
